createdAt,value
2018-05-11T00:00:29.413Z,13.63
2018-05-11T00:02:57.080Z,11.40
2018-05-11T00:05:24.817Z,14.87
2018-05-11T00:07:53.287Z,12.10
2018-05-11T00:10:20.959Z,12.73
2018-05-11T00:12:49.481Z,10.67
2018-05-11T00:15:17.158Z,9.50
2018-05-11T00:17:44.835Z,13.67
2018-05-11T00:20:12.535Z,13.10
2018-05-11T00:22:41.011Z,10.57
2018-05-11T00:25:09.446Z,10.53
2018-05-11T00:27:37.145Z,12.80
2018-05-11T00:30:04.815Z,9.33
2018-05-11T00:32:33.291Z,13.30
2018-05-11T00:35:00.949Z,9.50
2018-05-11T00:37:28.651Z,10.37
2018-05-11T00:39:56.311Z,10.10
2018-05-11T00:42:24.005Z,10.70
2018-05-11T00:44:51.667Z,10.03
2018-05-11T00:47:19.379Z,11.27
2018-05-11T00:49:47.847Z,10.97
2018-05-11T00:52:16.272Z,9.83
2018-05-11T00:54:43.988Z,10.57
2018-05-11T00:57:12.448Z,7.43
2018-05-11T00:59:40.163Z,7.47
2018-05-11T01:02:07.815Z,7.40
2018-05-11T01:04:35.518Z,7.27
2018-05-11T01:07:03.167Z,6.90
2018-05-11T01:09:30.880Z,7.73
2018-05-11T01:11:59.307Z,7.83
2018-05-11T01:14:26.973Z,6.40
2018-05-11T01:16:54.723Z,7.07
2018-05-11T01:19:22.391Z,6.57
2018-05-11T01:21:50.095Z,12.53
2018-05-11T01:24:17.765Z,9.17
2018-05-11T01:26:45.561Z,7.47
2018-05-11T01:29:13.219Z,6.20
2018-05-11T01:31:41.639Z,7.70
2018-05-11T01:34:09.337Z,7.03
2018-05-11T01:36:37.771Z,11.73
2018-05-11T01:39:05.468Z,12.13
2018-05-11T01:41:33.131Z,6.53
2018-05-11T01:44:00.844Z,9.73
2018-05-11T01:46:28.511Z,14.60
2018-05-11T01:48:56.198Z,6.77
2018-05-11T01:51:23.907Z,5.93
2018-05-11T01:53:52.339Z,7.07
2018-05-11T01:56:20.044Z,7.30
2018-05-11T01:58:48.464Z,7.33
2018-05-11T02:01:16.129Z,9.17
2018-05-11T02:03:43.836Z,7.83
2018-05-11T02:06:11.484Z,7.17
2018-05-11T02:08:39.172Z,9.40
2018-05-11T02:11:07.591Z,9.83
2018-05-11T02:13:35.296Z,10.13
2018-05-11T02:16:02.946Z,8.93
2018-05-11T02:18:30.671Z,6.77
2018-05-11T02:20:58.391Z,8.97
2018-05-11T02:23:26.901Z,9.67
2018-05-11T02:25:54.557Z,11.83
2018-05-11T02:28:22.220Z,8.43
2018-05-11T02:30:49.951Z,10.60
2018-05-11T02:33:18.383Z,8.93
2018-05-11T02:35:46.099Z,12.53
2018-05-11T02:38:13.755Z,13.60
2018-05-11T02:40:41.419Z,13.27
2018-05-11T02:43:09.892Z,13.07
2018-05-11T02:45:37.614Z,14.37
2018-05-11T02:48:05.291Z,12.13
2018-05-11T02:50:33.011Z,14.33
2018-05-11T02:53:00.728Z,13.37
2018-05-11T02:55:28.485Z,14.43
2018-05-11T02:57:56.190Z,15.77
2018-05-11T03:00:24.620Z,13.20
2018-05-11T03:02:52.331Z,14.30
2018-05-11T03:05:20.795Z,17.03
2018-05-11T03:07:48.496Z,16.47
2018-05-11T03:10:16.176Z,19.73
2018-05-11T03:12:43.879Z,13.23
2018-05-11T03:15:11.593Z,18.13
2018-05-11T03:17:39.262Z,22.27
2018-05-11T03:20:06.926Z,20.93
2018-05-11T03:22:34.639Z,18.50
2018-05-11T03:25:02.344Z,20.37
2018-05-11T03:27:30.060Z,20.77
2018-05-11T03:29:57.724Z,18.60
2018-05-11T03:32:26.204Z,19.67
2018-05-11T03:34:54.639Z,19.30
2018-05-11T03:37:22.361Z,26.93
2018-05-11T03:39:50.811Z,16.27
2018-05-11T03:42:18.498Z,21.70
2018-05-11T03:44:46.969Z,21.30
2018-05-11T03:47:14.642Z,16.67
2018-05-11T03:49:43.111Z,20.00
2018-05-11T03:52:10.786Z,31.00
2018-05-11T03:54:39.247Z,24.90
2018-05-11T03:57:06.923Z,19.30
2018-05-11T03:59:35.413Z,21.93
2018-05-11T04:02:15.707Z,20.80
2018-05-11T04:04:57.205Z,22.97
2018-05-11T04:07:37.621Z,18.47
2018-05-11T04:10:06.088Z,18.90
2018-05-11T04:12:34.534Z,17.70
2018-05-11T04:15:02.204Z,19.73
2018-05-11T04:17:29.917Z,21.97
2018-05-11T04:19:57.590Z,24.43
2018-05-11T04:22:25.320Z,23.97
2018-05-11T04:24:53.755Z,22.33
2018-05-11T04:27:21.461Z,23.93
2018-05-11T04:29:49.899Z,20.33
2018-05-11T04:32:17.599Z,29.80
2018-05-11T04:34:46.086Z,26.10
2018-05-11T04:37:14.547Z,23.77
2018-05-11T04:39:42.211Z,25.17
2018-05-11T04:42:09.917Z,29.10
2018-05-11T04:44:37.601Z,22.40
2018-05-11T04:47:05.311Z,25.00
2018-05-11T04:49:33.754Z,22.70
2018-05-11T04:52:01.454Z,33.33
2018-05-11T04:54:29.878Z,47.03
2018-05-11T04:56:57.596Z,46.23
2018-05-11T04:59:26.026Z,27.10
2018-05-11T05:01:53.738Z,23.83
2018-05-11T05:04:22.166Z,20.43
2018-05-11T05:06:49.859Z,29.63
2018-05-11T05:09:18.322Z,26.57
2018-05-11T05:11:46.028Z,26.27
2018-05-11T05:14:14.455Z,24.93
2018-05-11T05:16:42.168Z,22.60
2018-05-11T05:19:10.642Z,24.13
2018-05-11T05:21:38.307Z,23.10
2018-05-11T05:24:06.804Z,18.10
2018-05-11T05:26:35.219Z,26.87
2018-05-11T05:29:02.923Z,22.57
2018-05-11T05:31:30.584Z,23.70
2018-05-11T05:33:58.289Z,26.50
2018-05-11T05:36:25.955Z,20.60
2018-05-11T05:38:53.666Z,22.10
2018-05-11T05:41:21.344Z,18.20
2018-05-11T05:43:49.851Z,19.97
2018-05-11T05:46:17.520Z,14.50
2018-05-11T05:48:45.199Z,17.67
2018-05-11T05:51:12.906Z,17.73
2018-05-11T05:53:41.358Z,19.80
2018-05-11T05:56:09.080Z,19.00
2018-05-11T05:58:36.789Z,16.23
2018-05-11T06:01:04.459Z,18.27
2018-05-11T06:03:32.177Z,15.67
2018-05-11T06:05:59.836Z,18.00
2018-05-11T06:08:28.456Z,18.57
2018-05-11T06:10:57.112Z,18.63
2018-05-11T06:13:26.765Z,18.27
2018-05-11T06:15:54.489Z,14.97
2018-05-11T06:18:22.171Z,18.00
2018-05-11T06:20:49.947Z,17.50
2018-05-11T06:23:17.651Z,16.60
2018-05-11T06:25:46.137Z,19.50
2018-05-11T06:28:13.844Z,17.90
2018-05-11T06:30:41.579Z,18.47
2018-05-11T06:33:09.262Z,15.13
2018-05-11T06:35:36.990Z,20.73
2018-05-11T06:38:04.676Z,15.50
2018-05-11T06:40:32.409Z,16.60
2018-05-11T06:43:00.121Z,16.33
2018-05-11T06:45:27.839Z,16.07
2018-05-11T06:47:55.541Z,17.57
2018-05-11T06:50:23.238Z,14.77
2018-05-11T06:52:51.729Z,14.17
2018-05-11T06:55:20.220Z,12.07
2018-05-11T06:57:48.658Z,15.00
2018-05-11T07:00:16.378Z,13.33
2018-05-11T07:02:44.100Z,14.20
2018-05-11T07:05:12.760Z,14.13
2018-05-11T07:07:40.471Z,12.00
2018-05-11T07:10:08.272Z,9.90
2018-05-11T07:12:35.991Z,10.93
2018-05-11T07:15:04.474Z,12.17
2018-05-11T07:17:32.923Z,11.83
2018-05-11T07:20:00.636Z,10.00
2018-05-11T07:22:28.316Z,7.33
2018-05-11T07:24:56.043Z,11.73
2018-05-11T07:27:24.572Z,9.63
2018-05-11T07:29:52.293Z,10.27
2018-05-11T07:32:19.963Z,9.40
2018-05-11T07:34:48.730Z,9.40
2018-05-11T07:37:16.357Z,10.00
2018-05-11T07:39:44.062Z,10.83
2018-05-11T07:42:12.511Z,11.00
2018-05-11T07:44:40.258Z,12.17
2018-05-11T07:47:07.927Z,10.47
2018-05-11T07:49:35.595Z,10.67
2018-05-11T07:52:03.294Z,14.40
2018-05-11T07:54:31.735Z,7.77
2018-05-11T07:56:59.446Z,9.50
2018-05-11T07:59:27.137Z,11.80
2018-05-11T08:01:54.932Z,9.90
2018-05-11T08:04:22.676Z,9.67
2018-05-11T08:06:50.556Z,10.57
2018-05-11T08:09:21.499Z,9.60
2018-05-11T08:11:50.393Z,8.63
2018-05-11T08:14:18.105Z,9.07
2018-05-11T08:16:45.780Z,8.57
2018-05-11T08:19:13.661Z,13.73
2018-05-11T08:21:43.746Z,9.40
2018-05-11T08:24:12.353Z,10.30
2018-05-11T08:26:40.085Z,9.87
2018-05-11T08:29:07.842Z,11.80
2018-05-11T08:31:36.276Z,8.70
2018-05-11T08:34:04.008Z,12.07
2018-05-11T08:36:31.772Z,12.00
2018-05-11T08:39:08.968Z,9.10
2018-05-11T08:41:45.826Z,9.70
2018-05-11T08:47:28.700Z,8.47
2018-05-11T08:49:56.395Z,11.97
2018-05-11T08:52:24.071Z,9.10
2018-05-11T08:54:52.564Z,9.43
2018-05-11T08:57:20.224Z,12.13
2018-05-11T08:59:48.699Z,8.67
2018-05-11T09:02:17.176Z,9.40
2018-05-11T09:04:45.600Z,9.23
2018-05-11T09:07:13.303Z,12.33
2018-05-11T09:09:40.994Z,12.17
2018-05-11T09:12:08.661Z,10.47
2018-05-11T09:14:36.378Z,6.53
2018-05-11T09:17:04.070Z,9.23
2018-05-11T09:19:32.663Z,7.77
2018-05-11T09:22:00.465Z,7.43
2018-05-11T09:24:28.074Z,8.53
2018-05-11T09:26:55.897Z,7.33
2018-05-11T09:29:23.559Z,8.93
2018-05-11T09:31:51.343Z,9.63
2018-05-11T09:34:20.968Z,9.20
2018-05-11T09:36:49.427Z,8.80
2018-05-11T09:39:17.135Z,9.37
2018-05-11T09:41:44.857Z,11.00
2018-05-11T09:44:12.570Z,7.87
2018-05-11T09:46:40.297Z,7.50
2018-05-11T09:49:08.775Z,9.63
2018-05-11T09:51:37.242Z,7.27
2018-05-11T09:54:04.959Z,8.03
2018-05-11T09:56:32.665Z,5.97
2018-05-11T09:59:01.011Z,5.93
2018-05-11T10:01:28.747Z,5.77
2018-05-11T10:03:56.422Z,5.33
2018-05-11T10:06:25.067Z,6.73
2018-05-11T10:08:54.227Z,6.33
2018-05-11T10:11:21.993Z,6.10
2018-05-11T10:13:49.776Z,5.50
2018-05-11T10:16:17.449Z,6.10
2018-05-11T10:18:45.187Z,5.23
2018-05-11T10:21:19.686Z,5.73
2018-05-11T10:23:50.369Z,5.67
2018-05-11T10:26:18.375Z,4.37
2018-05-11T10:28:46.278Z,6.70
2018-05-11T10:31:14.029Z,6.53
2018-05-11T10:33:42.005Z,5.17
2018-05-11T10:36:09.800Z,6.17
2018-05-11T10:38:38.255Z,8.50
2018-05-11T10:41:06.019Z,7.33
2018-05-11T10:43:33.777Z,7.43
2018-05-11T10:46:01.547Z,9.83
2018-05-11T10:48:29.232Z,7.17
2018-05-11T10:50:57.673Z,9.07
2018-05-11T10:53:25.532Z,6.37
2018-05-11T10:55:53.203Z,7.17
2018-05-11T10:58:21.929Z,8.80
2018-05-11T11:00:49.604Z,11.30
2018-05-11T11:03:18.087Z,8.80
2018-05-11T11:05:47.557Z,6.90
2018-05-11T11:08:15.318Z,5.83
2018-05-11T11:10:43.041Z,10.47
2018-05-11T11:13:10.776Z,5.60
2018-05-11T11:15:39.236Z,6.10
2018-05-11T11:18:07.027Z,8.90
2018-05-11T11:20:34.739Z,8.67
2018-05-11T11:23:02.400Z,9.30
2018-05-11T11:25:30.109Z,11.23
2018-05-11T11:27:57.889Z,6.10
2018-05-11T11:30:25.623Z,10.80
2018-05-11T11:32:53.293Z,6.63
2018-05-11T11:35:24.116Z,6.23
2018-05-11T11:37:51.804Z,7.87
2018-05-11T11:40:20.272Z,8.23
2018-05-11T11:42:48.765Z,11.27
2018-05-11T11:45:17.235Z,6.03
2018-05-11T11:47:44.905Z,6.50
2018-05-11T11:50:13.402Z,9.23
2018-05-11T11:52:41.104Z,6.20
2018-05-11T11:55:09.083Z,5.60
2018-05-11T11:57:36.789Z,7.60
2018-05-11T12:00:05.225Z,5.50
2018-05-11T12:02:33.056Z,7.70
2018-05-11T12:05:01.964Z,5.33
2018-05-11T12:07:29.672Z,5.07
2018-05-11T12:09:58.130Z,4.53
2018-05-11T12:12:25.856Z,6.03
2018-05-11T12:14:53.539Z,5.20
2018-05-11T12:17:21.259Z,5.67
2018-05-11T12:19:50.062Z,5.60
2018-05-11T12:22:17.949Z,4.80
2018-05-11T12:24:45.853Z,7.10
2018-05-11T12:27:13.589Z,5.53
2018-05-11T12:29:41.478Z,5.50
2018-05-11T12:32:09.159Z,4.33
2018-05-11T12:34:37.633Z,4.37
2018-05-11T12:37:05.384Z,6.90
2018-05-11T12:39:33.853Z,5.93
2018-05-11T12:42:01.600Z,5.53
2018-05-11T12:44:29.353Z,5.97
2018-05-11T12:46:57.199Z,5.10
2018-05-11T12:49:25.850Z,5.93
2018-05-11T12:51:53.527Z,7.10
2018-05-11T12:54:21.235Z,5.70
2018-05-11T12:56:48.934Z,5.23
2018-05-11T12:59:17.447Z,5.17
2018-05-11T13:01:46.213Z,7.87
2018-05-11T13:04:13.929Z,5.97
2018-05-11T13:06:41.644Z,4.80
2018-05-11T13:09:10.561Z,5.73
2018-05-11T13:11:38.357Z,5.93
2018-05-11T13:14:06.746Z,5.23
2018-05-11T13:16:34.528Z,7.60
2018-05-11T13:19:02.230Z,5.37
2018-05-11T13:21:29.880Z,7.87
2018-05-11T13:23:58.379Z,6.87
2018-05-11T13:26:26.178Z,5.67
2018-05-11T13:28:54.535Z,9.90
2018-05-11T13:31:22.266Z,6.57
2018-05-11T13:33:49.958Z,6.27
2018-05-11T13:36:17.688Z,7.43
2018-05-11T13:38:46.167Z,5.87
2018-05-11T13:41:14.640Z,6.07
2018-05-11T13:43:43.153Z,6.90
2018-05-11T13:46:10.856Z,8.30
2018-05-11T13:48:38.628Z,7.13
2018-05-11T13:51:06.312Z,8.13
2018-05-11T13:53:34.801Z,10.43
2018-05-11T13:56:03.270Z,8.57
2018-05-11T13:58:31.821Z,8.67
2018-05-11T14:00:59.492Z,7.17
2018-05-11T14:03:27.207Z,8.43
2018-05-11T14:05:54.957Z,8.20
2018-05-11T14:08:22.727Z,7.43
2018-05-11T14:10:52.225Z,7.97
2018-05-11T14:13:19.925Z,6.50
2018-05-11T14:15:47.665Z,6.33
2018-05-11T14:18:15.394Z,9.77
2018-05-11T14:20:43.130Z,8.03
2018-05-11T14:23:10.814Z,6.83
2018-05-11T14:25:39.079Z,6.13
2018-05-11T14:28:09.982Z,6.17
2018-05-11T14:30:37.721Z,7.27
2018-05-11T14:33:05.564Z,4.97
2018-05-11T14:35:33.295Z,6.40
2018-05-11T14:38:01.239Z,7.00
2018-05-11T14:40:28.963Z,4.97
2018-05-11T14:42:57.443Z,6.00
2018-05-11T14:45:25.886Z,6.43
2018-05-11T14:47:55.685Z,9.50
2018-05-11T14:50:23.507Z,8.57
2018-05-11T14:52:51.992Z,11.23
2018-05-11T14:55:20.447Z,6.40
2018-05-11T14:57:48.175Z,5.93
2018-05-11T15:00:15.873Z,6.63
2018-05-11T15:02:43.662Z,8.00
2018-05-11T15:05:12.112Z,8.70
2018-05-11T15:07:40.847Z,9.03
2018-05-11T15:10:08.629Z,5.87
2018-05-11T15:12:37.038Z,5.73
2018-05-11T15:15:04.799Z,9.13
2018-05-11T15:17:32.516Z,5.80
2018-05-11T15:20:00.285Z,6.73
2018-05-11T15:22:27.975Z,6.10
2018-05-11T15:24:56.091Z,5.77
2018-05-11T15:27:24.990Z,6.17
2018-05-11T15:29:52.683Z,6.47
2018-05-11T15:32:20.387Z,7.10
2018-05-11T15:34:48.096Z,5.30
2018-05-11T15:37:15.792Z,8.07
2018-05-11T15:39:43.553Z,7.40
2018-05-11T15:42:11.225Z,9.40
2018-05-11T15:44:38.928Z,8.23
2018-05-11T15:47:07.406Z,6.77
2018-05-11T15:49:35.837Z,7.87
2018-05-11T15:52:03.554Z,6.27
2018-05-11T15:54:32.999Z,6.70
2018-05-11T15:57:00.731Z,8.07
2018-05-11T15:59:28.395Z,5.27
2018-05-11T16:01:56.105Z,5.80
2018-05-11T16:04:23.813Z,11.53
2018-05-11T16:06:52.240Z,7.87
2018-05-11T16:09:19.964Z,10.47
2018-05-11T16:11:47.702Z,9.27
2018-05-11T16:14:16.156Z,9.40
2018-05-11T16:16:43.860Z,7.37
2018-05-11T16:19:12.338Z,8.83
2018-05-11T16:21:40.763Z,7.50
2018-05-11T16:24:08.454Z,6.70
2018-05-11T16:26:36.167Z,8.63
2018-05-11T16:29:03.840Z,6.37
2018-05-11T16:31:31.562Z,6.27
2018-05-11T16:34:00.000Z,6.17
2018-05-11T16:36:27.713Z,5.80
2018-05-11T16:38:56.158Z,7.70
2018-05-11T16:41:26.016Z,9.60
2018-05-11T16:43:53.714Z,7.80
2018-05-11T16:46:21.408Z,6.97
2018-05-11T16:48:49.154Z,5.80
2018-05-11T16:51:16.919Z,6.93
2018-05-11T16:53:44.595Z,6.03
2018-05-11T16:56:12.490Z,6.53
2018-05-11T16:58:41.085Z,6.60
2018-05-11T17:01:18.616Z,9.57
2018-05-11T17:03:47.494Z,5.80
2018-05-11T17:06:16.224Z,9.47
2018-05-11T17:08:44.673Z,5.57
2018-05-11T17:11:12.377Z,5.63
2018-05-11T17:13:40.917Z,5.80
2018-05-11T17:16:08.626Z,6.23
2018-05-11T17:18:37.083Z,6.10
2018-05-11T17:21:05.609Z,6.03
2018-05-11T17:23:33.288Z,6.33
2018-05-11T17:26:01.121Z,7.10
2018-05-11T17:28:28.855Z,7.03
2018-05-11T17:30:56.807Z,6.30
2018-05-11T17:33:24.485Z,6.87
2018-05-11T17:35:52.236Z,6.77
2018-05-11T17:38:19.996Z,6.90
2018-05-11T17:40:47.793Z,8.17
2018-05-11T17:43:15.572Z,6.60
2018-05-11T17:45:43.995Z,10.27
2018-05-11T17:48:11.704Z,8.20
2018-05-11T17:50:40.133Z,8.77
2018-05-11T17:53:07.839Z,8.20
2018-05-11T17:55:36.251Z,7.13
2018-05-11T17:58:03.961Z,8.20
2018-05-11T18:00:31.832Z,8.97
2018-05-11T18:02:59.526Z,11.07
2018-05-11T18:05:27.243Z,6.93
2018-05-11T18:07:54.956Z,11.27
2018-05-11T18:10:22.874Z,7.50
2018-05-11T18:12:51.131Z,6.97
2018-05-11T18:15:18.787Z,7.20
2018-05-11T18:17:46.489Z,8.20
2018-05-11T18:20:14.150Z,6.73
2018-05-11T18:22:41.879Z,9.17
2018-05-11T18:25:09.550Z,6.90
2018-05-11T18:27:37.269Z,10.03
2018-05-11T18:30:05.012Z,8.07
2018-05-11T18:32:33.508Z,6.93
2018-05-11T18:35:01.223Z,7.40
2018-05-11T18:37:29.106Z,5.60
2018-05-11T18:39:56.885Z,8.23
2018-05-11T18:42:24.585Z,6.27
2018-05-11T18:44:52.347Z,7.07
2018-05-11T18:47:20.050Z,7.10
2018-05-11T18:49:47.743Z,6.53
2018-05-11T18:52:16.736Z,6.23
2018-05-11T18:54:45.366Z,7.07
2018-05-11T18:57:13.263Z,7.90
2018-05-11T18:59:40.998Z,8.23
2018-05-11T19:02:08.710Z,8.37
2018-05-11T19:04:37.209Z,5.33
2018-05-11T19:07:04.988Z,12.60
2018-05-11T19:09:32.717Z,9.07
2018-05-11T19:12:01.154Z,8.57
2018-05-11T19:14:28.862Z,7.83
2018-05-11T19:16:57.409Z,6.20
2018-05-11T19:19:25.125Z,6.77
2018-05-11T19:21:52.827Z,8.83
2018-05-11T19:24:20.572Z,7.57
2018-05-11T19:26:48.367Z,6.93
2018-05-11T19:29:16.910Z,7.17
2018-05-11T19:31:44.632Z,6.60
2018-05-11T19:34:13.480Z,7.60
2018-05-11T19:36:43.043Z,7.70
2018-05-11T19:39:10.772Z,11.03
2018-05-11T19:41:38.576Z,9.50
2018-05-11T19:44:06.391Z,11.17
2018-05-11T19:46:34.242Z,8.43
2018-05-11T19:49:02.098Z,7.20
2018-05-11T19:51:30.655Z,8.27
2018-05-11T19:53:59.783Z,8.33
2018-05-11T19:56:27.661Z,9.70
2018-05-11T19:58:55.592Z,6.93
2018-05-11T20:01:24.160Z,8.47
2018-05-11T20:03:52.098Z,9.03
2018-05-11T20:06:19.913Z,8.37
2018-05-11T20:08:47.985Z,8.33
2018-05-11T20:11:15.695Z,7.00
2018-05-11T20:13:43.548Z,11.40
2018-05-11T20:16:11.265Z,11.40
2018-05-11T20:18:39.746Z,8.53
2018-05-11T20:21:08.164Z,10.13
2018-05-11T20:23:36.005Z,13.13
2018-05-11T20:26:03.710Z,8.40
2018-05-11T20:28:31.484Z,10.10
2018-05-11T20:30:59.219Z,9.70
2018-05-11T20:33:26.945Z,7.83
2018-05-11T20:35:55.552Z,8.67
2018-05-11T20:38:23.381Z,10.67
2018-05-11T20:40:51.931Z,8.80
2018-05-11T20:43:19.684Z,7.47
2018-05-11T20:45:47.428Z,8.00
2018-05-11T20:48:15.106Z,9.37
2018-05-11T20:50:42.837Z,8.57
2018-05-11T20:53:11.268Z,9.80
2018-05-11T20:55:39.024Z,8.87
2018-05-11T20:58:06.764Z,7.93
2018-05-11T21:00:34.613Z,8.27
2018-05-11T21:03:03.040Z,10.13
2018-05-11T21:05:30.735Z,10.33
2018-05-11T21:07:59.167Z,10.00
2018-05-11T21:10:26.911Z,12.53
2018-05-11T21:12:54.818Z,12.47
2018-05-11T21:15:22.783Z,11.07
2018-05-11T21:17:50.487Z,13.67
2018-05-11T21:20:19.096Z,15.83
2018-05-11T21:22:46.820Z,18.23
2018-05-11T21:25:15.477Z,16.70
2018-05-11T21:27:43.219Z,15.53
2018-05-11T21:30:10.920Z,17.20
2018-05-11T21:32:39.003Z,15.90
2018-05-11T21:35:07.472Z,17.00
2018-05-11T21:37:36.245Z,20.20
2018-05-11T21:40:04.144Z,16.33
2018-05-11T21:42:33.409Z,19.20
2018-05-11T21:45:01.935Z,21.00
2018-05-11T21:47:29.635Z,15.40
2018-05-11T21:49:57.336Z,15.33
2018-05-11T21:52:25.932Z,17.90
2018-05-11T21:54:54.567Z,11.77
2018-05-11T21:57:22.427Z,16.50
2018-05-11T21:59:50.218Z,21.40
2018-05-11T22:02:19.433Z,16.53
2018-05-11T22:04:48.131Z,16.70
2018-05-11T22:07:16.596Z,17.40
2018-05-11T22:09:45.383Z,18.33
2018-05-11T22:12:13.355Z,16.00
2018-05-11T22:14:41.376Z,16.47
2018-05-11T22:17:09.268Z,15.60
2018-05-11T22:19:37.386Z,14.83
2018-05-11T22:22:05.813Z,13.87
2018-05-11T22:24:33.721Z,15.53
2018-05-11T22:27:02.358Z,18.03
2018-05-11T22:29:30.273Z,13.10
2018-05-11T22:31:59.208Z,15.33
2018-05-11T22:34:27.031Z,14.53
2018-05-11T22:36:55.511Z,15.00
2018-05-11T22:39:23.484Z,13.83
2018-05-11T22:41:52.483Z,16.33
2018-05-11T22:44:20.948Z,14.57
2018-05-11T22:46:48.608Z,18.47
2018-05-11T22:49:16.571Z,13.17
2018-05-11T22:51:44.393Z,14.53
2018-05-11T22:54:13.264Z,17.03
2018-05-11T22:56:40.936Z,16.43
2018-05-11T22:59:08.639Z,15.70
2018-05-11T23:01:37.258Z,14.40
2018-05-11T23:04:05.681Z,13.67
2018-05-11T23:06:33.396Z,14.77
2018-05-11T23:09:01.824Z,11.47
2018-05-11T23:11:29.492Z,13.40
2018-05-11T23:13:57.200Z,16.33
2018-05-11T23:16:25.628Z,19.57
2018-05-11T23:18:53.330Z,14.80
2018-05-11T23:21:20.995Z,18.37
2018-05-11T23:23:48.695Z,15.43
2018-05-11T23:26:16.416Z,11.97
2018-05-11T23:28:44.072Z,13.87
2018-05-11T23:31:11.733Z,13.40
2018-05-11T23:33:39.442Z,11.77
2018-05-11T23:36:07.103Z,14.23
2018-05-11T23:38:34.819Z,13.77
2018-05-11T23:41:02.525Z,14.83
2018-05-11T23:43:30.180Z,14.10
2018-05-11T23:45:58.648Z,14.90
2018-05-11T23:48:27.071Z,17.07
2018-05-11T23:50:54.740Z,14.40
2018-05-11T23:53:22.448Z,14.43
2018-05-11T23:55:50.877Z,17.60
2018-05-11T23:58:18.531Z,18.33
